KUIN/UIN METAR and TAF weather

Enter ICAO airport designator
Station Type Date Time Source
KUIN METAR 2019/12/07 06:54 UTC NOAA

KUIN 070654Z AUTO 07005KT 10SM CLR M02/M05 A3037 RMK AO2 SLP292 T10221050


Station Type Date Time Source
KUIN Decoded METAR 2019/12/07 06:54 UTC NOAA

QUINCY MUNI. BALDWIN FIELD, IL, United States (KUIN) 39-56N 091-12W
Dec 07, 2019 - 01:54 AM EST / 2019.12.07 0654 UTC
Wind: from the ENE (070 degrees) at 6 MPH (5 KT):0
Visibility: 10 mile(s):0
Sky conditions: clear
Temperature: 28.0 F (-2.2 C)
Windchill: 21 F (-6 C):1
Dew Point: 23.0 F (-5.0 C)
Relative Humidity: 81%
Pressure (altimeter): 30.37 in. Hg (1028 hPa)
ob: KUIN 070654Z AUTO 07005KT 10SM CLR M02/M05 A3037 RMK AO2 SLP292 T10221050
cycle: 7

Station Type Date Time Source
KUIN TAF 2019/12/07 06:22 UTC NOAA

TAF KUIN 070520Z 0706/0806 VRB04KT P6SM FEW250
FM071500 18006KT P6SM FEW250

Example: see airport list